Heckington, United Kingdom
Current Conditions -  °F | °C
As of 8:50 PM on Wednesday 26 Nov 2014 (Local Time) from EGXC Reporting Station
Drizzle Drizzle  
Wind Chill: 46°   Ceiling: 200
Heat Index: 46°   Visibility: 0.25mi
Dew Point: 46°   Wind: 2mph
Humidity: 100%   Direction: 70°ENE
Pressure: 29.77"   Gusts: NA
Location:  52.98°N, 0.3°W
Report Text: EGXC 262050Z 07002KT 0400 -DZ OVC002 08/08 Q1008 RED
Loading
Personal Weather Stations






























Interactive Weather Map New forecast layout! Learn more

10-Day Weather Forecast

Advertisements
Track Severe Weather on mobile